Aeroporto :







RITROVATECI SU...

 
LOGIN :

Iscrizione | Disclaimer

   EN    FR    IT 

 









Sommario :    VFR   VFR Marginale   IFR   IFR Intensivo   IFR Molto Intensivo
Visibilità : 
Base nubi : 
>= 8 km
>= 3000ft
5 / 8 km
1000 / 3000 ft
1500m / 5 km
500 / 1000 ft
800 / 1500m
200 / 500 ft
< 800m
< 200 ft
Simboli :   Temporali  Nebbia  Neve Forte  Precipitazioni Forti  Vento > 20 kt






- Altitudine del aeroporto : 1009 ft
- Codice IATA : ORH


KORH - Worcester Regional

ULTIMO METAR :
  • 160754Z AUTO 28015G22KT 10SM CLR M03/M11 A3008 RMK AO2 PK WND 29026/0741 SLP198 T10331111

METARs OBSOLETI :
  • 160654Z AUTO 28011G21KT 10SM CLR M03/M11 A3005 RMK AO2 PK WND 29030/0558 SLP187 T10331106
  • 160554Z 28018G24KT 10SM CLR M03/M11 A3001 RMK AO2 PK WND 28029/0500 SLP173 T10331106 10000 21033 51018

TAF KORH
Valido dal 16 a 06 ore il 17 a 06 ore UTC


160540Z 1606/1706 28011G23KT P6SM SCT200
FM161100 27011KT P6SM BKN120
FM170000 25004KT P6SM BKN150
FM170300 28004KT P6SM OVC150



MetMap, La meteo Aeronautica in un colpo d'occhio ! - Copyright ORBIFLY Dicembre 2007 - Disclaimer

ORBIFLY MET'MAP TEAM :

Programmazione e sviluppo : Alexandra Zaïnal
Concezione : Baudouin d'Aumeries
Aiuto per la programmazione : Marc-Olivier Méhu
Supporto tecnico e logistico : Manuel Goepfert
Aiuto per la traduzione : Arnaldo La Scala

Contatto : metmap@orbifly.com




FONTI E CREDITI :

   NOAA